createdAt,value
2019-03-08T00:00:17.311Z,82.80
2019-03-08T00:02:54.794Z,83.50
2019-03-08T00:05:32.307Z,83.80
2019-03-08T00:08:09.787Z,84.20
2019-03-08T00:10:47.288Z,84.80
2019-03-08T00:13:26.838Z,85.20
2019-03-08T00:16:04.350Z,85.10
2019-03-08T00:18:41.843Z,84.50
2019-03-08T00:21:19.343Z,84.10
2019-03-08T00:24:01.384Z,83.20
2019-03-08T00:26:38.898Z,82.70
2019-03-08T00:29:16.367Z,82.40
2019-03-08T00:31:53.875Z,82.40
2019-03-08T00:34:31.474Z,82.50
2019-03-08T00:37:09.172Z,82.40
2019-03-08T00:39:46.447Z,82.50
2019-03-08T00:42:23.951Z,82.70
2019-03-08T00:45:01.557Z,82.40
2019-03-08T00:47:39.034Z,81.60
2019-03-08T00:50:16.526Z,81.10
2019-03-08T00:52:54.000Z,81.30
2019-03-08T00:55:31.499Z,81.00
2019-03-08T00:58:08.957Z,81.00
2019-03-08T01:00:46.457Z,81.10
2019-03-08T01:03:27.609Z,81.10
2019-03-08T01:06:05.103Z,81.00
2019-03-08T01:08:42.590Z,80.80
2019-03-08T01:11:20.080Z,80.60
2019-03-08T01:14:10.842Z,80.40
2019-03-08T01:16:48.338Z,80.40
2019-03-08T01:19:25.808Z,80.70
2019-03-08T01:22:03.330Z,80.60
2019-03-08T01:24:40.901Z,80.20
2019-03-08T01:27:18.414Z,79.70
2019-03-08T01:29:55.887Z,79.80
2019-03-08T01:32:33.395Z,79.60
2019-03-08T01:35:11.038Z,80.00
2019-03-08T01:37:48.537Z,80.00
2019-03-08T01:40:27.511Z,80.20
2019-03-08T01:43:17.872Z,80.30
2019-03-08T01:45:58.696Z,80.40
2019-03-08T01:48:36.169Z,80.60
2019-03-08T01:51:13.688Z,80.60
2019-03-08T01:53:51.237Z,80.70
2019-03-08T01:56:28.733Z,80.90
2019-03-08T01:59:06.202Z,80.70
2019-03-08T02:01:43.715Z,80.70
2019-03-08T02:04:21.292Z,80.70
2019-03-08T02:06:58.786Z,80.60
2019-03-08T02:09:36.287Z,80.70
2019-03-08T02:12:13.778Z,80.70
2019-03-08T02:14:51.436Z,80.70
2019-03-08T02:17:28.948Z,80.80
2019-03-08T02:20:06.621Z,80.70
2019-03-08T02:22:44.150Z,80.70
2019-03-08T02:25:21.637Z,80.80
2019-03-08T02:28:00.097Z,81.00
2019-03-08T02:30:37.557Z,81.10
2019-03-08T02:33:15.146Z,81.10
2019-03-08T02:35:53.462Z,81.10
2019-03-08T02:38:30.947Z,81.60
2019-03-08T02:41:08.447Z,81.60
2019-03-08T02:43:46.024Z,81.80
2019-03-08T02:46:23.560Z,81.90
2019-03-08T02:49:01.029Z,82.10
2019-03-08T02:51:38.516Z,81.80
2019-03-08T02:54:16.102Z,82.00
2019-03-08T02:56:53.605Z,82.10
2019-03-08T02:59:31.074Z,82.00
2019-03-08T03:02:08.593Z,82.00
2019-03-08T03:04:46.168Z,82.10
2019-03-08T03:07:23.643Z,82.00
2019-03-08T03:10:01.114Z,81.80
2019-03-08T03:12:39.656Z,81.80
2019-03-08T03:15:17.171Z,81.80
2019-03-08T03:17:54.656Z,82.10
2019-03-08T03:20:32.142Z,81.80
2019-03-08T03:23:09.886Z,82.00
2019-03-08T03:25:47.359Z,81.60
2019-03-08T03:28:24.863Z,81.70
2019-03-08T03:31:02.335Z,81.50
2019-03-08T03:33:39.925Z,81.20
2019-03-08T03:36:17.430Z,80.80
2019-03-08T03:38:54.926Z,80.60
2019-03-08T03:41:32.415Z,80.60
2019-03-08T03:44:13.226Z,80.20
2019-03-08T03:46:50.711Z,79.30
2019-03-08T03:49:28.176Z,77.60
2019-03-08T03:52:05.657Z,75.10
2019-03-08T03:54:43.126Z,73.60
2019-03-08T03:57:20.616Z,73.00
2019-03-08T03:59:58.116Z,72.20
2019-03-08T04:02:35.719Z,71.50
2019-03-08T04:05:13.196Z,71.20
2019-03-08T04:07:50.691Z,71.30
2019-03-08T04:10:28.172Z,71.20
2019-03-08T04:13:05.775Z,70.80
2019-03-08T04:15:43.246Z,71.50
2019-03-08T04:18:20.737Z,72.20
2019-03-08T04:20:58.219Z,72.90
2019-03-08T04:23:35.826Z,73.00
2019-03-08T04:26:13.299Z,73.50
2019-03-08T04:28:50.794Z,73.70
2019-03-08T04:31:28.268Z,74.10
2019-03-08T04:34:13.576Z,73.60
2019-03-08T04:36:51.063Z,74.00
2019-03-08T04:39:28.551Z,74.30
2019-03-08T04:42:06.043Z,73.60
2019-03-08T04:44:43.533Z,73.40
2019-03-08T04:47:21.017Z,73.30
2019-03-08T04:49:58.495Z,72.80
2019-03-08T04:52:38.067Z,72.00
2019-03-08T04:55:17.321Z,71.50
2019-03-08T04:57:54.238Z,71.20
2019-03-08T05:00:31.691Z,70.50
2019-03-08T05:03:09.277Z,69.70
2019-03-08T05:05:46.736Z,69.00
2019-03-08T05:08:24.228Z,68.80
2019-03-08T05:11:01.696Z,68.40
2019-03-08T05:13:40.256Z,68.30
2019-03-08T05:16:17.717Z,68.40
2019-03-08T05:18:55.219Z,68.80
2019-03-08T05:21:32.686Z,69.10
2019-03-08T05:24:15.757Z,70.10
2019-03-08T05:26:53.260Z,69.50
2019-03-08T05:29:30.753Z,69.50
2019-03-08T05:32:09.334Z,69.80
2019-03-08T05:34:46.806Z,70.10
2019-03-08T05:37:24.297Z,70.50
2019-03-08T05:40:01.773Z,71.50
2019-03-08T05:42:40.342Z,70.90
2019-03-08T05:45:17.824Z,70.60
2019-03-08T05:47:55.354Z,70.50
2019-03-08T05:50:32.849Z,70.70
2019-03-08T05:53:10.405Z,70.60
2019-03-08T05:55:50.315Z,70.50
2019-03-08T05:58:27.818Z,70.50
2019-03-08T06:01:05.342Z,70.60
2019-03-08T06:03:42.971Z,70.70
2019-03-08T06:06:20.503Z,70.90
2019-03-08T06:08:58.060Z,70.50
2019-03-08T06:11:37.649Z,70.70
2019-03-08T06:14:15.194Z,70.40
2019-03-08T06:16:52.773Z,70.40
2019-03-08T06:19:30.309Z,70.50
2019-03-08T06:22:07.914Z,70.30
2019-03-08T06:24:45.433Z,70.30
2019-03-08T06:27:23.911Z,70.40
2019-03-08T06:30:01.479Z,70.10
2019-03-08T06:32:48.958Z,70.20
2019-03-08T06:35:26.470Z,70.00
2019-03-08T06:38:03.969Z,69.60
2019-03-08T06:40:42.071Z,70.00
2019-03-08T06:43:24.189Z,69.80
2019-03-08T06:46:01.689Z,69.40
2019-03-08T06:48:41.557Z,69.30
2019-03-08T06:51:50.498Z,69.20
2019-03-08T06:54:28.834Z,69.00
2019-03-08T06:57:06.308Z,68.90
2019-03-08T06:59:47.973Z,69.30
2019-03-08T07:02:25.580Z,69.20
2019-03-08T07:05:03.111Z,68.90
2019-03-08T07:07:40.599Z,68.30
2019-03-08T07:10:18.105Z,68.30
2019-03-08T07:13:03.838Z,67.80
2019-03-08T07:15:40.532Z,68.20
2019-03-08T07:18:18.038Z,67.90
2019-03-08T07:21:10.638Z,67.70
2019-03-08T07:24:03.859Z,67.90
2019-03-08T07:27:02.835Z,68.90
2019-03-08T07:30:15.233Z,68.10
2019-03-08T07:33:19.003Z,68.10
2019-03-08T07:36:19.861Z,68.30
2019-03-08T07:39:09.184Z,67.90
2019-03-08T07:42:31.652Z,67.80
2019-03-08T07:45:28.455Z,68.10
2019-03-08T07:48:28.078Z,67.90
2019-03-08T07:51:23.914Z,68.10
2019-03-08T07:54:17.840Z,68.20
2019-03-08T07:57:13.423Z,68.00
2019-03-08T08:00:09.668Z,67.90
2019-03-08T08:03:13.551Z,68.60
2019-03-08T08:06:00.169Z,68.80
2019-03-08T08:08:52.601Z,68.90
2019-03-08T08:11:49.599Z,69.00
2019-03-08T08:14:45.749Z,69.50
2019-03-08T08:17:41.892Z,69.90
2019-03-08T08:20:50.960Z,70.00
2019-03-08T08:23:47.186Z,70.40
2019-03-08T08:26:52.548Z,70.00
2019-03-08T08:29:43.749Z,70.90
2019-03-08T08:32:53.026Z,70.60
2019-03-08T08:35:49.154Z,71.30
2019-03-08T08:38:54.764Z,71.80
2019-03-08T08:41:39.967Z,72.80
2019-03-08T08:44:40.158Z,74.70
2019-03-08T08:47:45.615Z,75.70
2019-03-08T08:50:47.766Z,78.60
2019-03-08T08:53:37.960Z,81.20
2019-03-08T08:56:26.915Z,80.90
2019-03-08T08:59:32.730Z,81.70
2019-03-08T09:02:53.911Z,80.00
2019-03-08T09:05:40.513Z,79.10
2019-03-08T09:08:26.998Z,79.20
2019-03-08T09:11:13.306Z,78.70
2019-03-08T09:14:06.364Z,81.40
2019-03-08T09:17:02.471Z,82.30
2019-03-08T09:19:52.254Z,84.20
2019-03-08T09:22:54.388Z,83.80
2019-03-08T09:25:52.102Z,82.80
2019-03-08T09:29:04.672Z,82.70
2019-03-08T09:32:06.031Z,81.80
2019-03-08T09:34:59.495Z,82.40
2019-03-08T09:37:55.628Z,81.40
2019-03-08T09:40:51.730Z,84.80
2019-03-08T09:43:51.297Z,87.60
2019-03-08T09:46:53.607Z,86.60
2019-03-08T09:49:39.315Z,86.50
2019-03-08T09:52:27.613Z,83.00
2019-03-08T09:55:43.490Z,82.00
2019-03-08T09:58:31.707Z,79.00
2019-03-08T10:01:26.859Z,76.30
2019-03-08T10:04:16.380Z,76.70
2019-03-08T10:07:15.781Z,75.50
2019-03-08T10:10:10.377Z,74.80
2019-03-08T10:13:11.670Z,73.90
2019-03-08T10:15:56.407Z,74.20
2019-03-08T10:18:55.499Z,74.60
2019-03-08T10:21:42.009Z,74.40
2019-03-08T10:24:38.134Z,75.10
2019-03-08T10:27:21.679Z,75.70
2019-03-08T10:30:04.575Z,75.10
2019-03-08T10:33:04.204Z,74.90
2019-03-08T10:35:54.171Z,76.20
2019-03-08T10:38:59.792Z,75.30
2019-03-08T10:42:07.729Z,75.30
2019-03-08T10:44:56.873Z,74.10
2019-03-08T10:47:56.001Z,72.70
2019-03-08T10:50:34.284Z,72.40
2019-03-08T10:53:17.843Z,72.50
2019-03-08T10:56:12.056Z,72.40
2019-03-08T10:59:02.094Z,71.90
2019-03-08T11:02:15.340Z,72.20
2019-03-08T11:05:11.445Z,72.40
2019-03-08T11:08:09.043Z,71.70
2019-03-08T11:11:06.139Z,70.40
2019-03-08T11:13:51.052Z,68.20
2019-03-08T11:16:47.187Z,67.80
2019-03-08T11:19:43.290Z,67.10
2019-03-08T11:22:33.289Z,66.90
2019-03-08T11:25:18.240Z,65.00
2019-03-08T11:28:04.801Z,65.40
2019-03-08T11:31:08.046Z,64.00
2019-03-08T11:33:59.279Z,64.10
2019-03-08T11:36:51.134Z,67.90
2019-03-08T11:40:03.361Z,68.90
2019-03-08T11:43:22.522Z,68.20
2019-03-08T11:46:18.626Z,66.50
2019-03-08T11:49:17.642Z,66.70
2019-03-08T11:52:17.413Z,67.90
2019-03-08T11:55:13.501Z,65.40
2019-03-08T11:58:13.061Z,66.90
2019-03-08T12:01:09.317Z,71.10
2019-03-08T12:04:05.497Z,74.90
2019-03-08T12:06:57.566Z,76.50
2019-03-08T12:09:50.463Z,76.00
2019-03-08T12:12:43.046Z,72.80
2019-03-08T12:15:44.980Z,69.00
2019-03-08T12:18:44.584Z,68.00
2019-03-08T12:21:50.167Z,67.60
2019-03-08T12:24:36.249Z,67.60
2019-03-08T12:27:30.535Z,68.70
2019-03-08T12:30:37.335Z,66.20
2019-03-08T12:33:22.987Z,67.40
2019-03-08T12:36:10.816Z,65.80
2019-03-08T12:39:16.234Z,68.00
2019-03-08T12:42:25.262Z,67.80
2019-03-08T12:45:15.670Z,67.80
2019-03-08T12:48:11.821Z,68.50
2019-03-08T12:50:57.792Z,68.30
2019-03-08T12:53:57.035Z,69.40
2019-03-08T12:56:52.810Z,71.50
2019-03-08T13:00:02.023Z,74.40
2019-03-08T13:02:55.738Z,75.40
2019-03-08T13:06:09.097Z,74.60
2019-03-08T13:09:05.384Z,74.80
2019-03-08T13:11:42.854Z,74.20
2019-03-08T13:14:20.374Z,72.90
2019-03-08T13:16:57.855Z,72.00
2019-03-08T13:19:35.381Z,73.50
2019-03-08T13:22:12.974Z,73.50
2019-03-08T13:24:50.702Z,72.50
2019-03-08T13:27:28.186Z,72.00
2019-03-08T13:30:22.331Z,71.70
2019-03-08T13:33:00.733Z,69.50
2019-03-08T13:35:38.298Z,68.60
2019-03-08T13:38:15.809Z,69.50
2019-03-08T13:41:02.866Z,69.90
2019-03-08T13:43:40.457Z,71.40
2019-03-08T13:46:17.934Z,71.60
2019-03-08T13:48:55.463Z,73.10
2019-03-08T13:51:42.456Z,74.40
2019-03-08T13:54:20.082Z,74.60
2019-03-08T13:56:57.561Z,76.00
2019-03-08T13:59:35.043Z,77.60
2019-03-08T14:02:29.862Z,77.10
2019-03-08T14:05:07.547Z,78.30
2019-03-08T14:07:45.018Z,78.20
2019-03-08T14:10:22.624Z,78.70
2019-03-08T14:13:00.121Z,78.80
2019-03-08T14:15:37.919Z,78.70
2019-03-08T14:18:15.955Z,81.90
2019-03-08T14:21:04.190Z,83.80
2019-03-08T14:23:41.712Z,83.50
2019-03-08T14:26:19.302Z,82.90
2019-03-08T14:29:00.413Z,78.50
2019-03-08T14:31:49.347Z,72.40
2019-03-08T14:34:26.212Z,71.10
2019-03-08T14:37:03.706Z,64.00
2019-03-08T14:39:44.354Z,60.10
2019-03-08T14:42:25.439Z,55.50
2019-03-08T14:45:21.591Z,58.40
2019-03-08T14:48:00.607Z,60.10
2019-03-08T14:50:41.427Z,64.10
2019-03-08T14:53:18.910Z,65.40
2019-03-08T14:55:59.137Z,61.10
2019-03-08T14:58:36.739Z,58.20
2019-03-08T15:01:21.610Z,54.00
2019-03-08T15:03:59.143Z,53.40
2019-03-08T15:06:36.645Z,53.60
2019-03-08T15:09:15.801Z,54.70
2019-03-08T15:11:55.979Z,55.90
2019-03-08T15:14:33.894Z,53.50
2019-03-08T15:17:09.310Z,51.20
2019-03-08T15:19:58.906Z,51.00
2019-03-08T15:22:38.115Z,49.80
2019-03-08T15:25:14.210Z,49.10
2019-03-08T15:27:51.707Z,51.80
2019-03-08T15:30:38.585Z,54.90
2019-03-08T15:33:16.063Z,58.60
2019-03-08T15:35:53.590Z,62.60
2019-03-08T15:38:31.071Z,61.80
2019-03-08T15:41:11.976Z,59.10
2019-03-08T15:43:51.172Z,56.50
2019-03-08T15:46:27.094Z,53.80
2019-03-08T15:49:04.539Z,52.50
2019-03-08T15:51:42.111Z,51.00
2019-03-08T15:54:19.612Z,50.70
2019-03-08T15:56:57.107Z,50.30
2019-03-08T15:59:34.687Z,50.20
2019-03-08T16:02:12.184Z,50.40
2019-03-08T16:04:50.285Z,51.10
2019-03-08T16:07:27.335Z,50.60
2019-03-08T16:10:04.739Z,51.40
2019-03-08T16:12:42.202Z,52.30
2019-03-08T16:15:19.709Z,52.80
2019-03-08T16:17:57.195Z,54.40
2019-03-08T16:20:41.376Z,56.90
2019-03-08T16:23:21.001Z,59.50
2019-03-08T16:25:56.334Z,61.70
2019-03-08T16:28:33.816Z,64.00
2019-03-08T16:31:25.519Z,65.90
2019-03-08T16:34:01.176Z,67.10
2019-03-08T16:36:56.228Z,67.90
2019-03-08T16:39:49.049Z,67.90
2019-03-08T16:42:41.955Z,67.80
2019-03-08T16:45:50.554Z,68.50
2019-03-08T16:48:46.850Z,68.70
2019-03-08T16:51:34.421Z,67.00
2019-03-08T16:54:20.870Z,67.10
2019-03-08T16:57:20.193Z,67.60
2019-03-08T17:00:22.800Z,67.60
2019-03-08T17:03:18.939Z,68.00
2019-03-08T17:06:27.159Z,68.70
2019-03-08T17:09:21.698Z,68.40
2019-03-08T17:12:30.856Z,69.00
2019-03-08T17:15:37.155Z,69.40
2019-03-08T17:18:25.525Z,70.00
2019-03-08T17:21:17.983Z,70.40
2019-03-08T17:24:26.936Z,70.80
2019-03-08T17:27:20.181Z,70.90
2019-03-08T17:30:19.321Z,71.10
2019-03-08T17:33:20.413Z,71.30
2019-03-08T17:36:22.379Z,71.60
2019-03-08T17:39:21.441Z,71.50
2019-03-08T17:42:08.099Z,72.00
2019-03-08T17:44:58.965Z,71.90
2019-03-08T17:47:55.115Z,72.10
2019-03-08T17:50:51.223Z,72.00
2019-03-08T17:53:47.405Z,72.40
2019-03-08T17:56:46.640Z,72.20
2019-03-08T17:59:44.858Z,72.30
2019-03-08T18:02:45.704Z,72.60
2019-03-08T18:05:41.845Z,72.60
2019-03-08T18:08:41.098Z,72.00
2019-03-08T18:11:37.205Z,71.80
2019-03-08T18:14:33.325Z,71.30
2019-03-08T18:17:32.561Z,71.00
2019-03-08T18:20:29.905Z,71.30
2019-03-08T18:23:35.965Z,71.90
2019-03-08T18:26:24.448Z,72.60
2019-03-08T18:29:20.494Z,72.40
2019-03-08T18:32:02.998Z,72.20
2019-03-08T18:35:06.113Z,72.40
2019-03-08T18:38:18.722Z,72.40
2019-03-08T18:41:27.601Z,72.20
2019-03-08T18:44:30.477Z,72.10
2019-03-08T18:47:33.583Z,72.60
2019-03-08T18:50:30.063Z,71.40
2019-03-08T18:53:18.076Z,71.60
2019-03-08T18:56:14.229Z,71.20
2019-03-08T18:59:10.392Z,71.00
2019-03-08T19:02:16.262Z,70.90
2019-03-08T19:05:12.354Z,71.10
2019-03-08T19:08:13.050Z,71.80
2019-03-08T19:11:12.532Z,72.20
2019-03-08T19:14:19.412Z,72.80
2019-03-08T19:17:15.312Z,73.00
2019-03-08T19:20:18.310Z,73.00
2019-03-08T19:23:14.458Z,72.70
2019-03-08T19:26:08.144Z,72.60
2019-03-08T19:29:00.049Z,72.60
2019-03-08T19:31:46.059Z,73.30
2019-03-08T19:35:01.272Z,73.40
2019-03-08T19:37:56.169Z,73.30
2019-03-08T19:40:51.340Z,73.50
2019-03-08T19:43:41.327Z,73.60
2019-03-08T19:46:28.241Z,73.40
2019-03-08T19:49:28.643Z,73.40
2019-03-08T19:52:21.829Z,74.00
2019-03-08T19:55:10.762Z,74.60
2019-03-08T19:57:59.041Z,75.40
2019-03-08T20:00:47.674Z,76.00
2019-03-08T20:03:53.911Z,76.70
2019-03-08T20:06:39.538Z,77.20
2019-03-08T20:09:34.404Z,77.80
2019-03-08T20:12:34.049Z,79.50
2019-03-08T20:15:21.544Z,81.40
2019-03-08T20:18:17.650Z,83.00
2019-03-08T20:21:02.297Z,84.40
2019-03-08T20:23:49.375Z,86.30
2019-03-08T20:26:42.320Z,88.00
2019-03-08T20:29:26.651Z,89.50
2019-03-08T20:32:20.961Z,90.30
2019-03-08T20:35:26.862Z,90.50
2019-03-08T20:38:29.844Z,90.90
2019-03-08T20:41:20.698Z,90.90
2019-03-08T20:44:10.698Z,91.20
2019-03-08T20:46:52.286Z,91.20
2019-03-08T20:49:43.179Z,91.10
2019-03-08T20:52:20.684Z,91.30
2019-03-08T20:54:58.165Z,91.30
2019-03-08T20:57:35.729Z,91.30
2019-03-08T21:00:28.620Z,91.30
2019-03-08T21:03:06.214Z,91.10
2019-03-08T21:05:43.691Z,91.10
2019-03-08T21:08:23.267Z,91.00
2019-03-08T21:11:00.737Z,90.90
2019-03-08T21:13:38.230Z,91.00
2019-03-08T21:16:15.715Z,90.70
2019-03-08T21:18:59.385Z,90.30
2019-03-08T21:21:36.903Z,90.00
2019-03-08T21:24:14.435Z,89.40
2019-03-08T21:26:51.969Z,89.20
2019-03-08T21:30:21.119Z,89.30
2019-03-08T21:32:58.772Z,89.30
2019-03-08T21:35:36.332Z,89.40
2019-03-08T21:38:42.727Z,89.30
2019-03-08T21:41:20.251Z,89.50
2019-03-08T21:43:57.759Z,89.80
2019-03-08T21:46:35.235Z,90.00
2019-03-08T21:49:48.802Z,90.00
2019-03-08T21:52:26.302Z,89.70
2019-03-08T21:55:03.818Z,89.70
2019-03-08T21:57:41.444Z,89.70
2019-03-08T22:00:54.038Z,90.00
2019-03-08T22:03:31.590Z,89.90
2019-03-08T22:06:09.135Z,89.30
2019-03-08T22:08:57.528Z,89.00
2019-03-08T22:11:40.927Z,88.90
2019-03-08T22:14:18.417Z,88.60
2019-03-08T22:16:55.901Z,88.10
2019-03-08T22:19:39.617Z,87.80
2019-03-08T22:22:17.087Z,87.60
2019-03-08T22:24:54.613Z,87.40
2019-03-08T22:27:32.114Z,87.60
2019-03-08T22:30:19.024Z,87.30
2019-03-08T22:32:56.539Z,86.60
2019-03-08T22:35:34.021Z,86.20
2019-03-08T22:38:22.776Z,86.10
2019-03-08T22:41:00.361Z,86.00
2019-03-08T22:43:37.924Z,86.00
2019-03-08T22:46:15.412Z,85.90
2019-03-08T22:49:31.398Z,86.30
2019-03-08T22:52:08.982Z,85.80
2019-03-08T22:54:46.573Z,86.00
2019-03-08T22:57:24.140Z,86.70
2019-03-08T23:01:03.160Z,86.50
2019-03-08T23:03:40.838Z,86.10
2019-03-08T23:06:18.368Z,85.90
2019-03-08T23:09:16.191Z,86.10
2019-03-08T23:11:53.780Z,88.30
2019-03-08T23:14:31.303Z,90.50
2019-03-08T23:17:08.785Z,90.60
2019-03-08T23:20:06.548Z,91.10
2019-03-08T23:22:44.049Z,91.30
2019-03-08T23:25:21.585Z,91.30
2019-03-08T23:28:19.788Z,91.40
2019-03-08T23:31:00.481Z,91.60
2019-03-08T23:33:37.982Z,91.40
2019-03-08T23:36:15.490Z,91.40
2019-03-08T23:39:05.493Z,91.50
2019-03-08T23:41:42.989Z,91.50
2019-03-08T23:44:20.469Z,91.60
2019-03-08T23:46:57.941Z,91.60
2019-03-08T23:49:43.274Z,91.60
2019-03-08T23:52:20.782Z,91.70
2019-03-08T23:54:58.323Z,92.10
2019-03-08T23:57:37.173Z,91.80
